createdAt,value
2018-12-12T00:01:40.922Z,94697.19
2018-12-12T00:04:12.273Z,94696.69
2018-12-12T00:06:43.600Z,94696.29
2018-12-12T00:09:12.905Z,94699.49
2018-12-12T00:11:42.051Z,94706.86
2018-12-12T00:14:11.415Z,94630.53
2018-12-12T00:16:40.859Z,94695.38
2018-12-12T00:19:10.226Z,94694.88
2018-12-12T00:21:39.633Z,94692.75
2018-12-12T00:24:09.786Z,94701.36
2018-12-12T00:26:39.267Z,94708.19
2018-12-12T00:29:08.631Z,94707.12
2018-12-12T00:31:37.934Z,94708.67
2018-12-12T00:34:07.518Z,94711.89
2018-12-12T00:36:37.281Z,94715.11
2018-12-12T00:39:08.242Z,94715.73
2018-12-12T00:41:37.530Z,94709.55
2018-12-12T00:44:07.305Z,94710.24
2018-12-12T00:46:37.063Z,94697.63
2018-12-12T00:49:06.767Z,94703.44
2018-12-12T00:51:36.515Z,94706.78
2018-12-12T00:54:07.246Z,94708.48
2018-12-12T00:56:37.015Z,94710.99
2018-12-12T00:59:06.663Z,94710.19
2018-12-12T01:01:36.214Z,94707.58
2018-12-12T01:04:05.588Z,94710.89
2018-12-12T01:06:35.242Z,94710.41
2018-12-12T01:09:07.309Z,94716.02
2018-12-12T01:11:41.842Z,94708.31
2018-12-12T01:14:11.313Z,94709.55
2018-12-12T01:16:40.589Z,94710.99
2018-12-12T01:19:10.202Z,94716.02
2018-12-12T01:21:39.691Z,94715.96
2018-12-12T01:24:09.823Z,94718.48
2018-12-12T01:26:39.332Z,94704.36
2018-12-12T01:29:09.071Z,94712.23
2018-12-12T01:31:38.570Z,94713.71
2018-12-12T01:34:08.065Z,94707.67
2018-12-12T01:36:37.339Z,94715.38
2018-12-12T01:39:07.598Z,94711.27
2018-12-12T01:41:37.331Z,94709.77
2018-12-12T01:44:06.775Z,94703.08
2018-12-12T01:46:36.290Z,94705.64
2018-12-12T01:49:05.655Z,94706.83
2018-12-12T01:51:35.102Z,94714.67
2018-12-12T01:54:04.539Z,94704.19
2018-12-12T01:56:34.179Z,94704.05
2018-12-12T01:59:03.522Z,94716.97
2018-12-12T02:01:33.111Z,94720.88
2018-12-12T02:04:02.301Z,94644.55
2018-12-12T02:06:31.595Z,94713.32
2018-12-12T02:09:00.780Z,94732.38
2018-12-12T02:11:31.391Z,94716.81
2018-12-12T02:14:00.959Z,94709.62
2018-12-12T02:16:30.268Z,94710.38
2018-12-12T02:19:00.236Z,94715.68
2018-12-12T02:21:29.711Z,94713.53
2018-12-12T02:23:59.204Z,94708.62
2018-12-12T02:26:28.726Z,94708.03
2018-12-12T02:28:58.514Z,94711.37
2018-12-12T02:31:28.089Z,94711.66
2018-12-12T02:33:57.632Z,94708.45
2018-12-12T02:36:26.922Z,94705.00
2018-12-12T02:38:56.147Z,94700.54
2018-12-12T02:41:25.401Z,94696.98
2018-12-12T02:43:55.900Z,94704.77
2018-12-12T02:46:25.303Z,94715.56
2018-12-12T02:48:54.788Z,94708.98
2018-12-12T02:51:24.375Z,94709.53
2018-12-12T02:53:54.119Z,94704.98
2018-12-12T02:56:23.320Z,94706.83
2018-12-12T02:58:52.771Z,94705.05
2018-12-12T03:01:22.215Z,94703.11
2018-12-12T03:03:51.823Z,94702.23
2018-12-12T03:06:21.074Z,94703.94
2018-12-12T03:08:51.087Z,94699.40
2018-12-12T03:11:24.361Z,94697.97
2018-12-12T03:13:54.237Z,94700.97
2018-12-12T03:16:23.852Z,94693.41
2018-12-12T03:18:53.672Z,94692.81
2018-12-12T03:21:23.315Z,94695.95
2018-12-12T03:23:52.794Z,94692.95
2018-12-12T03:26:22.431Z,94701.62
2018-12-12T03:28:51.803Z,94695.23
2018-12-12T03:31:21.122Z,94696.42
2018-12-12T03:33:50.708Z,94695.55
2018-12-12T03:36:19.971Z,94698.66
2018-12-12T03:38:49.482Z,94689.59
2018-12-12T03:41:19.094Z,94693.95
2018-12-12T03:43:48.307Z,94698.44
2018-12-12T03:46:17.640Z,94703.45
2018-12-12T03:48:47.000Z,94708.17
2018-12-12T03:51:16.382Z,94706.17
2018-12-12T03:53:45.827Z,94707.83
2018-12-12T03:56:15.313Z,94710.80
2018-12-12T03:58:44.741Z,94712.22
2018-12-12T04:01:14.497Z,94712.94
2018-12-12T04:03:44.012Z,94721.70
2018-12-12T04:06:13.279Z,94722.81
2018-12-12T04:08:42.863Z,94715.05
2018-12-12T04:11:12.425Z,94721.48
2018-12-12T04:13:41.716Z,94713.70
2018-12-12T04:16:11.263Z,94724.17
2018-12-12T04:18:40.556Z,94729.16
2018-12-12T04:21:10.146Z,94725.96
2018-12-12T04:23:39.507Z,94733.72
2018-12-12T04:26:09.405Z,94734.37
2018-12-12T04:28:38.698Z,94723.41
2018-12-12T04:31:08.419Z,94704.89
2018-12-12T04:33:38.138Z,94716.76
2018-12-12T04:36:07.584Z,94730.98
2018-12-12T04:38:37.185Z,94723.45
2018-12-12T04:41:06.979Z,94729.27
2018-12-12T04:43:36.185Z,94726.98
2018-12-12T04:46:05.458Z,94740.47
2018-12-12T04:48:35.083Z,94738.16
2018-12-12T04:51:04.333Z,94759.88
2018-12-12T04:53:33.645Z,94751.63
2018-12-12T04:56:03.030Z,94754.41
2018-12-12T04:58:32.520Z,94760.47
2018-12-12T05:01:01.855Z,94767.42
2018-12-12T05:03:32.330Z,94761.63
2018-12-12T05:06:01.709Z,94762.33
2018-12-12T05:08:31.094Z,94763.69
2018-12-12T05:11:00.831Z,94756.23
2018-12-12T05:13:30.103Z,94763.69
2018-12-12T05:15:59.435Z,94766.13
2018-12-12T05:18:28.647Z,94760.58
2018-12-12T05:20:58.311Z,94758.50
2018-12-12T05:23:27.943Z,94785.49
2018-12-12T05:25:57.323Z,94760.37
2018-12-12T05:28:27.774Z,94771.80
2018-12-12T05:30:57.262Z,94769.84
2018-12-12T05:33:26.438Z,94771.06
2018-12-12T05:35:56.186Z,94770.42
2018-12-12T05:38:25.696Z,94771.33
2018-12-12T05:40:55.057Z,94771.05
2018-12-12T05:43:24.717Z,94768.80
2018-12-12T05:45:54.118Z,94763.66
2018-12-12T05:48:23.371Z,94774.33
2018-12-12T05:50:53.147Z,94779.87
2018-12-12T05:53:22.390Z,94781.02
2018-12-12T05:55:51.586Z,94781.57
2018-12-12T05:58:21.238Z,94782.81
2018-12-12T06:00:50.646Z,94781.16
2018-12-12T06:03:19.955Z,94785.91
2018-12-12T06:05:49.548Z,94791.80
2018-12-12T06:08:19.249Z,94788.48
2018-12-12T06:10:49.432Z,94789.28
2018-12-12T06:13:19.101Z,94790.59
2018-12-12T06:15:48.421Z,94795.92
2018-12-12T06:18:17.676Z,94787.98
2018-12-12T06:20:47.294Z,94794.44
2018-12-12T06:23:16.484Z,94800.48
2018-12-12T06:25:45.790Z,94807.31
2018-12-12T06:28:15.508Z,94808.94
2018-12-12T06:30:46.030Z,94809.73
2018-12-12T06:33:15.408Z,94805.13
2018-12-12T06:35:44.842Z,94814.67
2018-12-12T06:38:14.237Z,94813.72
2018-12-12T06:40:43.712Z,94826.45
2018-12-12T06:43:13.461Z,94818.36
2018-12-12T06:45:42.847Z,94814.81
2018-12-12T06:48:12.420Z,94823.61
2018-12-12T06:50:42.077Z,94826.88
2018-12-12T06:53:11.356Z,94825.25
2018-12-12T06:55:40.545Z,94815.19
2018-12-12T06:58:10.094Z,94808.22
2018-12-12T07:00:39.434Z,94820.73
2018-12-12T07:03:08.841Z,94829.48
2018-12-12T07:05:38.726Z,94818.87
2018-12-12T07:08:08.301Z,94830.39
2018-12-12T07:10:37.591Z,94824.80
2018-12-12T07:13:07.447Z,94830.16
2018-12-12T07:15:36.800Z,94818.30
2018-12-12T07:18:06.309Z,94829.50
2018-12-12T07:20:35.471Z,94832.89
2018-12-12T07:23:04.667Z,94833.15
2018-12-12T07:25:34.118Z,94830.27
2018-12-12T07:28:03.640Z,94843.20
2018-12-12T07:30:32.914Z,94830.83
2018-12-12T07:33:03.478Z,94837.81
2018-12-12T07:35:32.711Z,94857.86
2018-12-12T07:38:02.058Z,94853.68
2018-12-12T07:40:32.739Z,94850.77
2018-12-12T07:43:04.283Z,94783.09
2018-12-12T07:45:54.981Z,94854.38
2018-12-12T07:48:26.772Z,94850.38
2018-12-12T07:51:14.412Z,94854.34
2018-12-12T07:53:49.108Z,94855.95
2018-12-12T07:56:18.815Z,94863.44
2018-12-12T07:58:48.122Z,94855.42
2018-12-12T08:01:17.476Z,94868.86
2018-12-12T08:03:47.240Z,94868.47
2018-12-12T08:06:16.504Z,94869.21
2018-12-12T08:08:45.783Z,94866.77
2018-12-12T08:11:15.622Z,94876.83
2018-12-12T08:13:44.858Z,94890.52
2018-12-12T08:16:14.957Z,94889.33
2018-12-12T08:18:44.363Z,94892.46
2018-12-12T08:21:13.872Z,94889.81
2018-12-12T08:23:43.408Z,94889.89
2018-12-12T08:26:12.675Z,94889.05
2018-12-12T08:28:41.954Z,94886.80
2018-12-12T08:31:11.546Z,94890.55
2018-12-12T08:33:40.745Z,94893.81
2018-12-12T08:36:09.970Z,94884.16
2018-12-12T08:38:39.263Z,94897.25
2018-12-12T08:41:08.556Z,94914.19
2018-12-12T08:43:37.807Z,94896.56
2018-12-12T08:46:07.396Z,94891.00
2018-12-12T08:48:36.874Z,94892.15
2018-12-12T08:51:06.315Z,94902.07
2018-12-12T08:53:35.607Z,94905.20
2018-12-12T08:56:04.963Z,94900.44
2018-12-12T08:58:34.303Z,94905.48
2018-12-12T09:01:03.560Z,94900.25
2018-12-12T09:03:32.993Z,94906.00
2018-12-12T09:06:02.419Z,94902.41
2018-12-12T09:08:32.188Z,94904.17
2018-12-12T09:11:01.824Z,94898.55
2018-12-12T09:13:31.393Z,94897.98
2018-12-12T09:16:01.080Z,94906.70
2018-12-12T09:18:30.693Z,94899.86
2018-12-12T09:21:00.292Z,94896.80
2018-12-12T09:23:30.069Z,94898.08
2018-12-12T09:25:59.448Z,94899.39
2018-12-12T09:28:28.850Z,94861.00
2018-12-12T09:31:00.617Z,94886.58
2018-12-12T09:33:32.322Z,94898.56
2018-12-12T09:36:04.171Z,94894.76
2018-12-12T09:38:33.438Z,94896.75
2018-12-12T09:41:03.055Z,94885.38
2018-12-12T09:43:32.864Z,94880.08
2018-12-12T09:46:02.649Z,94887.75
2018-12-12T09:48:31.984Z,94880.36
2018-12-12T09:51:07.135Z,94879.64
2018-12-12T09:53:35.341Z,94878.19
2018-12-12T09:56:05.236Z,94869.72
2018-12-12T09:58:34.864Z,94868.28
2018-12-12T10:01:04.762Z,94871.88
2018-12-12T10:03:34.308Z,94862.29
2018-12-12T10:06:03.621Z,94869.31
2018-12-12T10:08:33.604Z,94857.09
2018-12-12T10:11:03.247Z,94858.89
2018-12-12T10:13:32.972Z,94855.08
2018-12-12T10:16:02.614Z,94854.08
2018-12-12T10:18:32.387Z,94851.03
2018-12-12T10:21:02.425Z,94854.66
2018-12-12T10:23:31.677Z,94851.35
2018-12-12T10:26:01.301Z,94845.23
2018-12-12T10:28:31.251Z,94843.39
2018-12-12T10:31:00.988Z,94839.62
2018-12-12T10:33:30.707Z,94843.62
2018-12-12T10:36:00.130Z,94834.41
2018-12-12T10:38:29.609Z,94829.42
2018-12-12T10:40:58.991Z,94819.50
2018-12-12T10:43:28.826Z,94833.02
2018-12-12T10:45:58.493Z,94825.42
2018-12-12T10:48:28.102Z,94826.36
2018-12-12T10:50:58.147Z,94814.09
2018-12-12T10:53:27.737Z,94835.02
2018-12-12T10:55:57.480Z,94823.43
2018-12-12T10:58:27.051Z,94830.14
2018-12-12T11:01:01.716Z,94824.13
2018-12-12T11:03:35.484Z,94826.41
2018-12-12T11:06:05.147Z,94818.48
2018-12-12T11:08:35.924Z,94814.45
2018-12-12T11:11:05.599Z,94817.55
2018-12-12T11:13:35.105Z,94820.16
2018-12-12T11:16:05.281Z,94816.70
2018-12-12T11:18:35.220Z,94816.44
2018-12-12T11:21:05.012Z,94820.27
2018-12-12T11:23:34.277Z,94818.05
2018-12-12T11:26:03.909Z,94817.94
2018-12-12T11:28:33.858Z,94816.53
2018-12-12T11:31:03.479Z,94812.59
2018-12-12T11:33:32.915Z,94810.07
2018-12-12T11:36:02.767Z,94804.56
2018-12-12T11:38:32.036Z,94818.16
2018-12-12T11:41:01.441Z,94812.39
2018-12-12T11:43:31.084Z,94727.54
2018-12-12T11:46:00.459Z,94794.70
2018-12-12T11:48:29.923Z,94833.48
2018-12-12T11:50:59.613Z,94814.41
2018-12-12T11:53:29.366Z,94815.31
2018-12-12T11:55:59.210Z,94807.69
2018-12-12T11:58:29.050Z,94809.31
2018-12-12T12:00:58.425Z,94807.34
2018-12-12T12:03:28.460Z,94810.31
2018-12-12T12:05:58.038Z,94822.41
2018-12-12T12:08:27.492Z,94813.80
2018-12-12T12:10:57.272Z,94802.52
2018-12-12T12:13:28.568Z,94800.89
2018-12-12T12:15:58.201Z,94801.87
2018-12-12T12:18:27.638Z,94737.99
2018-12-12T12:20:57.114Z,94798.79
2018-12-12T12:23:27.400Z,94806.70
2018-12-12T12:25:56.899Z,94810.92
2018-12-12T12:28:26.525Z,94804.80
2018-12-12T12:30:56.326Z,94807.28
2018-12-12T12:33:25.744Z,94809.00
2018-12-12T12:35:55.195Z,94813.09
2018-12-12T12:38:25.049Z,94816.30
2018-12-12T12:40:54.586Z,94828.23
2018-12-12T12:43:23.994Z,94825.03
2018-12-12T12:45:53.647Z,94828.66
2018-12-12T12:48:23.170Z,94828.58
2018-12-12T12:50:52.726Z,94838.95
2018-12-12T12:53:22.400Z,94832.20
2018-12-12T12:55:52.547Z,94828.30
2018-12-12T12:58:22.915Z,94841.56
2018-12-12T13:00:52.256Z,94822.39
2018-12-12T13:03:21.653Z,94832.86
2018-12-12T13:05:51.222Z,94841.48
2018-12-12T13:08:20.556Z,94846.33
2018-12-12T13:10:50.394Z,94840.05
2018-12-12T13:13:19.968Z,94843.57
2018-12-12T13:15:50.034Z,94836.58
2018-12-12T13:18:19.346Z,94841.61
2018-12-12T13:20:48.806Z,94846.00
2018-12-12T13:23:18.272Z,94841.97
2018-12-12T13:25:47.953Z,94851.56
2018-12-12T13:28:17.232Z,94853.36
2018-12-12T13:30:48.023Z,94856.75
2018-12-12T13:33:17.362Z,94854.02
2018-12-12T13:35:47.030Z,94855.50
2018-12-12T13:38:16.657Z,94864.56
2018-12-12T13:40:46.187Z,94863.17
2018-12-12T13:43:15.417Z,94866.84
2018-12-12T13:45:44.891Z,94872.41
2018-12-12T13:48:14.166Z,94867.84
2018-12-12T13:50:43.627Z,94872.58
2018-12-12T13:53:13.433Z,94884.34
2018-12-12T13:55:42.869Z,94880.01
2018-12-12T13:58:12.628Z,94881.14
2018-12-12T14:00:42.476Z,94887.72
2018-12-12T14:03:11.703Z,94885.12
2018-12-12T14:05:41.254Z,94895.31
2018-12-12T14:08:10.835Z,94891.25
2018-12-12T14:10:40.080Z,94894.20
2018-12-12T14:13:09.671Z,94896.97
2018-12-12T14:15:39.219Z,94894.41
2018-12-12T14:18:08.631Z,94900.94
2018-12-12T14:20:37.936Z,94895.16
2018-12-12T14:23:07.529Z,94903.94
2018-12-12T14:25:36.998Z,94902.25
2018-12-12T14:28:06.401Z,94900.42
2018-12-12T14:30:36.333Z,94895.16
2018-12-12T14:33:05.762Z,94898.56
2018-12-12T14:35:34.959Z,94896.98
2018-12-12T14:38:05.300Z,94895.14
2018-12-12T14:40:35.183Z,94897.42
2018-12-12T14:43:04.890Z,94896.69
2018-12-12T14:45:34.398Z,94903.23
2018-12-12T14:48:03.805Z,94895.76
2018-12-12T14:50:33.643Z,94900.35
2018-12-12T14:53:03.224Z,94906.55
2018-12-12T14:55:32.751Z,94909.20
2018-12-12T14:58:02.151Z,94905.40
2018-12-12T15:00:32.779Z,94916.92
2018-12-12T15:03:02.405Z,94904.22
2018-12-12T15:05:31.822Z,94903.63
2018-12-12T15:08:01.393Z,94913.23
2018-12-12T15:10:31.232Z,94903.30
2018-12-12T15:13:00.580Z,94917.34
2018-12-12T15:15:30.272Z,94907.31
2018-12-12T15:18:00.092Z,94912.98
2018-12-12T15:20:29.803Z,94913.50
2018-12-12T15:22:59.152Z,94904.22
2018-12-12T15:25:28.446Z,94912.88
2018-12-12T15:27:57.815Z,94911.95
2018-12-12T15:30:27.413Z,94913.94
2018-12-12T15:32:57.018Z,94919.08
2018-12-12T15:35:26.801Z,94926.26
2018-12-12T15:37:56.438Z,94918.09
2018-12-12T15:40:26.033Z,94915.05
2018-12-12T15:42:55.509Z,94920.14
2018-12-12T15:45:24.879Z,94920.48
2018-12-12T15:47:54.482Z,94916.44
2018-12-12T15:50:23.886Z,94922.99
2018-12-12T15:52:53.206Z,94923.55
2018-12-12T15:55:22.813Z,94921.05
2018-12-12T15:57:52.189Z,94911.28
2018-12-12T16:00:22.054Z,94918.60
2018-12-12T16:02:51.979Z,94913.23
2018-12-12T16:05:21.415Z,94916.02
2018-12-12T16:07:50.860Z,94916.05
2018-12-12T16:10:20.796Z,94907.34
2018-12-12T16:12:50.435Z,94904.72
2018-12-12T16:15:19.895Z,94909.11
2018-12-12T16:17:49.326Z,94917.41
2018-12-12T16:20:18.624Z,94919.19
2018-12-12T16:22:47.836Z,94905.56
2018-12-12T16:25:17.549Z,94918.78
2018-12-12T16:27:47.290Z,94915.72
2018-12-12T16:30:16.814Z,94918.05
2018-12-12T16:32:46.149Z,94908.16
2018-12-12T16:35:15.540Z,94927.88
2018-12-12T16:37:45.262Z,94928.59
2018-12-12T16:40:14.742Z,94927.70
2018-12-12T16:42:44.346Z,94914.20
2018-12-12T16:45:16.206Z,94919.79
2018-12-12T16:47:45.822Z,94923.05
2018-12-12T16:50:15.188Z,94928.88
2018-12-12T16:52:44.689Z,94923.86
2018-12-12T16:55:14.255Z,94927.53
2018-12-12T16:57:43.683Z,94920.34
2018-12-12T17:00:13.470Z,94926.98
2018-12-12T17:02:43.285Z,94925.48
2018-12-12T17:05:12.765Z,94929.27
2018-12-12T17:07:42.067Z,94930.55
2018-12-12T17:10:11.731Z,94928.16
2018-12-12T17:12:41.296Z,94935.03
2018-12-12T17:15:11.206Z,94937.27
2018-12-12T17:17:40.909Z,94881.25
2018-12-12T17:20:10.282Z,94942.04
2018-12-12T17:22:39.791Z,94940.59
2018-12-12T17:25:09.527Z,94941.80
2018-12-12T17:27:38.926Z,94946.14
2018-12-12T17:30:09.355Z,94945.75
2018-12-12T17:32:38.787Z,94949.23
2018-12-12T17:35:09.155Z,94938.35
2018-12-12T17:37:38.926Z,94931.23
2018-12-12T17:40:09.404Z,94956.52
2018-12-12T17:42:38.948Z,94956.92
2018-12-12T17:45:08.546Z,94958.77
2018-12-12T17:47:38.199Z,94947.36
2018-12-12T17:50:07.979Z,94947.51
2018-12-12T17:52:37.515Z,94939.97
2018-12-12T17:55:06.867Z,94931.68
2018-12-12T17:57:36.428Z,94932.14
2018-12-12T18:00:07.532Z,94926.43
2018-12-12T18:02:38.994Z,94927.52
2018-12-12T18:05:15.415Z,94924.50
2018-12-12T18:07:45.032Z,94927.47
2018-12-12T18:10:14.920Z,94907.56
2018-12-12T18:12:44.133Z,94916.91
2018-12-12T18:15:14.004Z,94928.36
2018-12-12T18:17:45.367Z,94933.89
2018-12-12T18:20:15.006Z,94946.97
2018-12-12T18:22:44.627Z,94947.67
2018-12-12T18:25:16.159Z,94959.38
2018-12-12T18:27:45.707Z,94957.59
2018-12-12T18:30:15.245Z,94964.46
2018-12-12T18:32:47.045Z,94958.58
2018-12-12T18:35:22.350Z,94958.70
2018-12-12T18:37:51.851Z,94955.98
2018-12-12T18:40:22.807Z,94959.87
2018-12-12T18:42:54.121Z,94959.73
2018-12-12T18:45:23.977Z,94959.19
2018-12-12T18:47:53.433Z,94958.36
2018-12-12T18:50:24.942Z,94963.02
2018-12-12T18:53:15.985Z,94961.67
2018-12-12T18:55:45.939Z,94967.53
2018-12-12T18:58:15.221Z,94963.48
2018-12-12T19:00:44.452Z,94967.48
2018-12-12T19:03:14.122Z,94964.06
2018-12-12T19:05:43.831Z,94962.23
2018-12-12T19:08:13.388Z,94958.07
2018-12-12T19:10:42.771Z,94968.36
2018-12-12T19:13:12.357Z,94978.09
2018-12-12T19:15:41.856Z,94970.07
2018-12-12T19:18:11.580Z,94971.05
2018-12-12T19:20:41.002Z,94978.72
2018-12-12T19:23:10.553Z,94979.32
2018-12-12T19:25:40.035Z,94975.03
2018-12-12T19:28:09.653Z,94964.78
2018-12-12T19:30:39.321Z,94961.98
2018-12-12T19:33:08.765Z,94979.52
2018-12-12T19:35:38.264Z,94969.55
2018-12-12T19:38:07.875Z,94969.94
2018-12-12T19:40:37.470Z,94971.52
2018-12-12T19:43:06.931Z,94971.34
2018-12-12T19:45:36.453Z,94976.33
2018-12-12T19:48:05.664Z,94967.50
2018-12-12T19:50:34.940Z,94970.17
2018-12-12T19:53:04.167Z,94969.68
2018-12-12T19:55:33.804Z,94969.55
2018-12-12T19:58:03.192Z,94975.79
2018-12-12T20:00:32.899Z,94973.52
2018-12-12T20:03:02.698Z,94991.23
2018-12-12T20:05:32.446Z,94956.61
2018-12-12T20:08:02.045Z,94966.60
2018-12-12T20:10:31.305Z,94957.14
2018-12-12T20:13:01.156Z,94964.22
2018-12-12T20:15:35.774Z,94963.98
2018-12-12T20:18:05.095Z,94968.28
2018-12-12T20:20:35.335Z,94976.69
2018-12-12T20:23:05.080Z,94976.76
2018-12-12T20:25:34.827Z,94970.23
2018-12-12T20:28:04.388Z,94976.27
2018-12-12T20:30:35.509Z,94973.69
2018-12-12T20:33:05.082Z,94975.64
2018-12-12T20:35:34.589Z,94973.44
2018-12-12T20:38:04.154Z,94977.73
2018-12-12T20:40:33.620Z,94976.89
2018-12-12T20:43:03.180Z,94980.31
2018-12-12T20:45:32.931Z,94969.50
2018-12-12T20:48:02.356Z,94978.36
2018-12-12T20:50:31.734Z,94984.48
2018-12-12T20:53:01.091Z,94977.69
2018-12-12T20:55:30.623Z,94985.05
2018-12-12T20:58:00.307Z,94987.17
2018-12-12T21:00:29.819Z,94986.09
2018-12-12T21:02:59.408Z,94986.89
2018-12-12T21:05:29.126Z,94986.41
2018-12-12T21:07:58.511Z,94985.23
2018-12-12T21:10:27.848Z,94985.64
2018-12-12T21:12:57.516Z,94989.64
2018-12-12T21:15:27.154Z,94986.69
2018-12-12T21:17:56.467Z,94988.70
2018-12-12T21:20:25.736Z,94990.98
2018-12-12T21:22:56.753Z,94989.30
2018-12-12T21:25:28.430Z,94987.62
2018-12-12T21:27:57.876Z,94989.82
2018-12-12T21:30:27.171Z,94987.56
2018-12-12T21:32:56.828Z,94983.70
2018-12-12T21:35:26.308Z,94984.73
2018-12-12T21:37:55.831Z,94992.16
2018-12-12T21:40:25.346Z,94992.59
2018-12-12T21:42:54.820Z,94991.81
2018-12-12T21:45:24.324Z,94994.69
2018-12-12T21:47:53.756Z,94993.80
2018-12-12T21:50:22.984Z,94993.19
2018-12-12T21:52:52.318Z,94999.19
2018-12-12T21:55:21.930Z,94996.94
2018-12-12T21:57:51.344Z,95002.23
2018-12-12T22:00:21.277Z,95001.08
2018-12-12T22:02:50.959Z,95000.59
2018-12-12T22:05:20.483Z,95004.41
2018-12-12T22:07:50.073Z,94990.03
2018-12-12T22:10:19.460Z,94990.48
2018-12-12T22:12:48.977Z,94990.89
2018-12-12T22:15:18.470Z,94992.72
2018-12-12T22:17:47.959Z,94994.05
2018-12-12T22:20:17.274Z,94991.64
2018-12-12T22:22:46.500Z,94989.62
2018-12-12T22:25:15.931Z,94987.77
2018-12-12T22:27:45.403Z,94986.72
2018-12-12T22:30:14.980Z,94989.88
2018-12-12T22:32:44.375Z,94992.31
2018-12-12T22:35:14.014Z,94990.78
2018-12-12T22:37:43.587Z,94986.34
2018-12-12T22:40:12.968Z,94984.50
2018-12-12T22:42:42.428Z,94982.29
2018-12-12T22:45:11.890Z,94978.10
2018-12-12T22:47:41.240Z,94982.16
2018-12-12T22:50:10.610Z,94975.47
2018-12-12T22:52:40.035Z,94969.08
2018-12-12T22:55:09.471Z,94954.98
2018-12-12T22:57:39.042Z,94965.30
2018-12-12T23:00:14.083Z,94975.14
2018-12-12T23:02:44.620Z,94979.19
2018-12-12T23:05:13.944Z,94971.08
2018-12-12T23:07:43.523Z,94961.88
2018-12-12T23:10:13.053Z,94976.45
2018-12-12T23:12:42.622Z,94973.95
2018-12-12T23:15:11.974Z,94983.53
2018-12-12T23:17:41.249Z,94968.23
2018-12-12T23:20:10.806Z,94971.44
2018-12-12T23:22:40.157Z,94975.27
2018-12-12T23:25:09.577Z,94977.08
2018-12-12T23:27:38.982Z,94967.91
2018-12-12T23:30:09.346Z,94960.91
2018-12-12T23:32:38.945Z,94961.03
2018-12-12T23:35:08.347Z,94963.08
2018-12-12T23:37:38.004Z,94958.00
2018-12-12T23:40:07.502Z,94964.59
2018-12-12T23:42:36.823Z,94972.36
2018-12-12T23:45:06.588Z,94966.52
2018-12-12T23:47:36.066Z,94971.33
2018-12-12T23:50:05.899Z,94962.94
2018-12-12T23:52:36.309Z,94973.81
2018-12-12T23:55:06.143Z,94982.70
2018-12-12T23:57:35.510Z,94982.22
